Terminal Aerodrome Forecast
Issued by NWS Milwaukee/Sullivan, WI

Home | Current Version | Previous Version | Text Only | Print | Product List | Glossary On
Versions: 1 2 3 4 5 6 7 8 9 10 11 12 13 14 15 16 17 18 19 20 21 22 23 24 25 26 27 28 29 30 31 32 33 34 35 36 37 38 39 40 41 42 43 44 45
000
FTUS43 KMKX 240425 AAH
TAFMSN
TAF AMD
KMSN 240425Z 2404/2424 18009KT P6SM VCTS FEW005 SCT040CB OVC070
     FM240900 18006KT 5SM -SHRA BR VCTS SCT040CB OVC090
      TEMPO 2409/2411 2SM -TSRA BR OVC040CB
     FM241100 20007KT 5SM BR OVC060
     FM241400 22008KT P6SM BKN120
     FM242200 28010KT P6SM FEW110=

USA.gov is the U.S. government's official web portal to all federal, state and local government web resources and services.